sensor_id;sensor_type;location;lat;lon;timestamp;P1;durP1;ratioP1;P2;durP2;ratioP2
58017;SDS011;43810;50.860;19.226;2023-01-15T00:01:15;8.60;;;3.05;;
58017;SDS011;43810;50.860;19.226;2023-01-15T00:03:44;4.93;;;2.50;;
58017;SDS011;43810;50.860;19.226;2023-01-15T00:06:10;10.00;;;3.08;;
58017;SDS011;43810;50.860;19.226;2023-01-15T00:08:36;5.65;;;2.90;;
58017;SDS011;43810;50.860;19.226;2023-01-15T00:11:02;6.45;;;2.40;;
58017;SDS011;43810;50.860;19.226;2023-01-15T00:13:28;6.38;;;2.83;;
58017;SDS011;43810;50.860;19.226;2023-01-15T00:16:01;7.40;;;2.17;;
58017;SDS011;43810;50.860;19.226;2023-01-15T00:18:31;6.47;;;3.20;;
58017;SDS011;43810;50.860;19.226;2023-01-15T00:20:58;6.40;;;2.63;;
58017;SDS011;43810;50.860;19.226;2023-01-15T00:23:25;7.10;;;2.25;;
58017;SDS011;43810;50.860;19.226;2023-01-15T00:26:14;6.15;;;2.63;;
58017;SDS011;43810;50.860;19.226;2023-01-15T00:29:00;7.30;;;2.80;;
58017;SDS011;43810;50.860;19.226;2023-01-15T00:31:26;12.32;;;3.33;;
58017;SDS011;43810;50.860;19.226;2023-01-15T00:33:53;6.80;;;2.67;;
58017;SDS011;43810;50.860;19.226;2023-01-15T00:36:19;6.85;;;2.67;;
58017;SDS011;43810;50.860;19.226;2023-01-15T00:38:44;5.18;;;2.42;;
58017;SDS011;43810;50.860;19.226;2023-01-15T00:41:10;7.88;;;2.55;;
58017;SDS011;43810;50.860;19.226;2023-01-15T00:43:36;10.10;;;2.83;;
58017;SDS011;43810;50.860;19.226;2023-01-15T00:46:02;5.70;;;3.03;;
58017;SDS011;43810;50.860;19.226;2023-01-15T00:48:30;7.10;;;2.25;;
58017;SDS011;43810;50.860;19.226;2023-01-15T00:50:56;9.02;;;2.42;;
58017;SDS011;43810;50.860;19.226;2023-01-15T00:53:22;9.98;;;2.83;;
58017;SDS011;43810;50.860;19.226;2023-01-15T00:55:48;10.55;;;3.30;;
58017;SDS011;43810;50.860;19.226;2023-01-15T00:58:14;8.30;;;2.30;;
58017;SDS011;43810;50.860;19.226;2023-01-15T01:00:40;4.70;;;3.00;;
58017;SDS011;43810;50.860;19.226;2023-01-15T01:03:06;5.72;;;2.95;;
58017;SDS011;43810;50.860;19.226;2023-01-15T01:05:32;7.05;;;2.75;;
58017;SDS011;43810;50.860;19.226;2023-01-15T01:07:57;4.75;;;2.47;;
58017;SDS011;43810;50.860;19.226;2023-01-15T01:10:25;7.18;;;2.58;;
58017;SDS011;43810;50.860;19.226;2023-01-15T01:12:51;10.70;;;2.67;;
58017;SDS011;43810;50.860;19.226;2023-01-15T01:15:20;6.03;;;1.90;;
58017;SDS011;43810;50.860;19.226;2023-01-15T01:17:47;4.75;;;2.30;;
58017;SDS011;43810;50.860;19.226;2023-01-15T01:20:14;6.07;;;2.25;;
58017;SDS011;43810;50.860;19.226;2023-01-15T01:22:41;4.38;;;1.98;;
58017;SDS011;43810;50.860;19.226;2023-01-15T01:25:08;5.30;;;2.30;;
58017;SDS011;43810;50.860;19.226;2023-01-15T01:27:34;4.97;;;2.20;;
58017;SDS011;43810;50.860;19.226;2023-01-15T01:30:00;3.75;;;2.05;;
58017;SDS011;43810;50.860;19.226;2023-01-15T01:32:26;3.10;;;1.83;;
58017;SDS011;43810;50.860;19.226;2023-01-15T01:34:52;7.03;;;2.80;;
58017;SDS011;43810;50.860;19.226;2023-01-15T01:37:18;7.68;;;2.70;;
58017;SDS011;43810;50.860;19.226;2023-01-15T01:39:44;6.47;;;2.53;;
58017;SDS011;43810;50.860;19.226;2023-01-15T01:42:14;6.55;;;1.88;;
58017;SDS011;43810;50.860;19.226;2023-01-15T01:47:10;8.93;;;2.30;;
58017;SDS011;43810;50.860;19.226;2023-01-15T01:49:41;3.80;;;2.08;;
58017;SDS011;43810;50.860;19.226;2023-01-15T01:52:09;13.27;;;2.80;;
58017;SDS011;43810;50.860;19.226;2023-01-15T01:54:40;3.53;;;2.05;;
58017;SDS011;43810;50.860;19.226;2023-01-15T01:57:08;5.63;;;2.10;;
58017;SDS011;43810;50.860;19.226;2023-01-15T01:59:35;6.35;;;2.45;;
58017;SDS011;43810;50.860;19.226;2023-01-15T02:02:02;6.45;;;2.38;;
58017;SDS011;43810;50.860;19.226;2023-01-15T02:04:28;5.32;;;2.17;;
58017;SDS011;43810;50.860;19.226;2023-01-15T02:06:55;4.78;;;2.05;;
58017;SDS011;43810;50.860;19.226;2023-01-15T02:09:23;7.70;;;2.40;;
58017;SDS011;43810;50.860;19.226;2023-01-15T02:11:49;5.80;;;2.22;;
58017;SDS011;43810;50.860;19.226;2023-01-15T02:16:56;7.90;;;3.00;;
58017;SDS011;43810;50.860;19.226;2023-01-15T02:22:58;9.63;;;2.63;;
58017;SDS011;43810;50.860;19.226;2023-01-15T02:28:35;3.90;;;2.30;;
58017;SDS011;43810;50.860;19.226;2023-01-15T02:33:35;4.57;;;2.10;;
58017;SDS011;43810;50.860;19.226;2023-01-15T02:36:06;7.38;;;3.00;;
58017;SDS011;43810;50.860;19.226;2023-01-15T02:38:36;4.63;;;2.17;;
58017;SDS011;43810;50.860;19.226;2023-01-15T02:41:09;3.85;;;2.22;;
58017;SDS011;43810;50.860;19.226;2023-01-15T02:43:40;4.35;;;2.20;;
58017;SDS011;43810;50.860;19.226;2023-01-15T02:46:10;5.07;;;2.63;;
58017;SDS011;43810;50.860;19.226;2023-01-15T02:48:39;7.43;;;2.40;;
58017;SDS011;43810;50.860;19.226;2023-01-15T02:51:09;5.28;;;2.30;;
58017;SDS011;43810;50.860;19.226;2023-01-15T02:53:40;6.75;;;2.53;;
58017;SDS011;43810;50.860;19.226;2023-01-15T02:56:10;8.50;;;3.58;;
58017;SDS011;43810;50.860;19.226;2023-01-15T02:58:39;6.00;;;2.90;;
58017;SDS011;43810;50.860;19.226;2023-01-15T03:01:15;5.15;;;2.80;;
58017;SDS011;43810;50.860;19.226;2023-01-15T03:06:24;5.20;;;2.30;;
58017;SDS011;43810;50.860;19.226;2023-01-15T03:08:58;4.05;;;2.38;;
58017;SDS011;43810;50.860;19.226;2023-01-15T03:11:24;6.47;;;2.50;;
58017;SDS011;43810;50.860;19.226;2023-01-15T03:16:38;4.85;;;2.10;;
58017;SDS011;43810;50.860;19.226;2023-01-15T03:19:20;3.75;;;2.35;;
58017;SDS011;43810;50.860;19.226;2023-01-15T03:22:08;5.88;;;2.70;;
58017;SDS011;43810;50.860;19.226;2023-01-15T03:24:44;3.03;;;2.25;;
58017;SDS011;43810;50.860;19.226;2023-01-15T03:27:29;4.15;;;2.17;;
58017;SDS011;43810;50.860;19.226;2023-01-15T03:30:29;4.97;;;2.88;;
58017;SDS011;43810;50.860;19.226;2023-01-15T03:32:48;8.85;;;3.17;;
58017;SDS011;43810;50.860;19.226;2023-01-15T03:38:05;9.20;;;2.70;;
58017;SDS011;43810;50.860;19.226;2023-01-15T03:40:31;7.25;;;2.53;;
58017;SDS011;43810;50.860;19.226;2023-01-15T03:43:03;5.30;;;3.08;;
58017;SDS011;43810;50.860;19.226;2023-01-15T03:45:51;3.83;;;2.17;;
58017;SDS011;43810;50.860;19.226;2023-01-15T03:48:29;4.22;;;2.30;;
58017;SDS011;43810;50.860;19.226;2023-01-15T03:51:08;5.60;;;2.92;;
58017;SDS011;43810;50.860;19.226;2023-01-15T03:53:55;4.63;;;2.15;;
58017;SDS011;43810;50.860;19.226;2023-01-15T03:56:38;5.15;;;2.65;;
58017;SDS011;43810;50.860;19.226;2023-01-15T03:59:20;7.28;;;2.75;;
58017;SDS011;43810;50.860;19.226;2023-01-15T04:01:48;5.57;;;2.10;;
58017;SDS011;43810;50.860;19.226;2023-01-15T04:04:16;4.22;;;2.65;;
58017;SDS011;43810;50.860;19.226;2023-01-15T04:06:42;6.32;;;2.70;;
58017;SDS011;43810;50.860;19.226;2023-01-15T04:09:09;5.70;;;2.70;;
58017;SDS011;43810;50.860;19.226;2023-01-15T04:11:37;4.47;;;3.00;;
58017;SDS011;43810;50.860;19.226;2023-01-15T04:14:03;6.07;;;2.33;;
58017;SDS011;43810;50.860;19.226;2023-01-15T04:16:30;5.00;;;2.65;;
58017;SDS011;43810;50.860;19.226;2023-01-15T04:18:57;6.70;;;2.83;;
58017;SDS011;43810;50.860;19.226;2023-01-15T04:21:23;4.75;;;2.97;;
58017;SDS011;43810;50.860;19.226;2023-01-15T04:23:49;4.95;;;2.70;;
58017;SDS011;43810;50.860;19.226;2023-01-15T04:26:15;9.48;;;3.38;;
58017;SDS011;43810;50.860;19.226;2023-01-15T04:28:42;8.75;;;3.75;;
58017;SDS011;43810;50.860;19.226;2023-01-15T04:31:08;11.05;;;3.90;;
58017;SDS011;43810;50.860;19.226;2023-01-15T04:33:34;8.30;;;3.33;;
58017;SDS011;43810;50.860;19.226;2023-01-15T04:36:00;8.55;;;3.10;;
58017;SDS011;43810;50.860;19.226;2023-01-15T04:38:27;6.50;;;2.28;;
58017;SDS011;43810;50.860;19.226;2023-01-15T04:40:53;3.67;;;2.40;;
58017;SDS011;43810;50.860;19.226;2023-01-15T04:43:37;4.60;;;2.20;;
58017;SDS011;43810;50.860;19.226;2023-01-15T04:46:23;5.80;;;2.42;;
58017;SDS011;43810;50.860;19.226;2023-01-15T04:48:50;2.78;;;1.73;;
58017;SDS011;43810;50.860;19.226;2023-01-15T04:51:16;3.47;;;1.52;;
58017;SDS011;43810;50.860;19.226;2023-01-15T04:53:42;4.38;;;2.10;;
58017;SDS011;43810;50.860;19.226;2023-01-15T04:56:08;4.50;;;2.20;;
58017;SDS011;43810;50.860;19.226;2023-01-15T04:58:34;4.18;;;2.22;;
58017;SDS011;43810;50.860;19.226;2023-01-15T05:01:00;3.95;;;2.22;;
58017;SDS011;43810;50.860;19.226;2023-01-15T05:03:27;3.60;;;2.13;;
58017;SDS011;43810;50.860;19.226;2023-01-15T05:05:53;5.53;;;2.10;;
58017;SDS011;43810;50.860;19.226;2023-01-15T05:08:20;3.70;;;2.38;;
58017;SDS011;43810;50.860;19.226;2023-01-15T05:10:45;5.80;;;2.50;;
58017;SDS011;43810;50.860;19.226;2023-01-15T05:13:11;3.40;;;1.80;;
58017;SDS011;43810;50.860;19.226;2023-01-15T05:15:37;4.78;;;2.22;;
58017;SDS011;43810;50.860;19.226;2023-01-15T05:18:05;6.45;;;2.35;;
58017;SDS011;43810;50.860;19.226;2023-01-15T05:20:34;4.35;;;2.00;;
58017;SDS011;43810;50.860;19.226;2023-01-15T05:23:01;2.97;;;2.35;;
58017;SDS011;43810;50.860;19.226;2023-01-15T05:25:27;3.60;;;2.15;;
58017;SDS011;43810;50.860;19.226;2023-01-15T05:27:53;5.82;;;2.20;;
58017;SDS011;43810;50.860;19.226;2023-01-15T05:30:18;5.75;;;2.40;;
58017;SDS011;43810;50.860;19.226;2023-01-15T05:32:44;6.55;;;2.90;;
58017;SDS011;43810;50.860;19.226;2023-01-15T05:35:10;6.75;;;2.60;;
58017;SDS011;43810;50.860;19.226;2023-01-15T05:37:36;16.52;;;4.45;;
58017;SDS011;43810;50.860;19.226;2023-01-15T05:40:02;13.75;;;4.60;;
58017;SDS011;43810;50.860;19.226;2023-01-15T05:42:28;12.75;;;3.75;;
58017;SDS011;43810;50.860;19.226;2023-01-15T05:44:53;9.82;;;3.90;;
58017;SDS011;43810;50.860;19.226;2023-01-15T05:47:19;11.00;;;3.92;;
58017;SDS011;43810;50.860;19.226;2023-01-15T05:49:45;11.63;;;4.75;;
58017;SDS011;43810;50.860;19.226;2023-01-15T05:52:13;12.70;;;3.85;;
58017;SDS011;43810;50.860;19.226;2023-01-15T05:54:38;7.07;;;2.72;;
58017;SDS011;43810;50.860;19.226;2023-01-15T05:57:04;8.85;;;3.25;;
58017;SDS011;43810;50.860;19.226;2023-01-15T05:59:30;6.72;;;2.92;;
58017;SDS011;43810;50.860;19.226;2023-01-15T06:01:57;12.48;;;4.38;;
58017;SDS011;43810;50.860;19.226;2023-01-15T06:04:24;9.45;;;3.25;;
58017;SDS011;43810;50.860;19.226;2023-01-15T06:06:51;11.25;;;2.95;;
58017;SDS011;43810;50.860;19.226;2023-01-15T06:09:18;11.57;;;3.60;;
58017;SDS011;43810;50.860;19.226;2023-01-15T06:11:44;11.30;;;3.88;;
58017;SDS011;43810;50.860;19.226;2023-01-15T06:14:11;7.35;;;3.20;;
58017;SDS011;43810;50.860;19.226;2023-01-15T06:16:37;7.15;;;3.50;;
58017;SDS011;43810;50.860;19.226;2023-01-15T06:19:04;6.35;;;2.38;;
58017;SDS011;43810;50.860;19.226;2023-01-15T06:21:32;5.95;;;2.58;;
58017;SDS011;43810;50.860;19.226;2023-01-15T06:23:59;6.70;;;3.55;;
58017;SDS011;43810;50.860;19.226;2023-01-15T06:26:25;6.88;;;3.20;;
58017;SDS011;43810;50.860;19.226;2023-01-15T06:28:51;5.80;;;2.55;;
58017;SDS011;43810;50.860;19.226;2023-01-15T06:31:19;7.68;;;2.92;;
58017;SDS011;43810;50.860;19.226;2023-01-15T06:33:46;8.93;;;4.20;;
58017;SDS011;43810;50.860;19.226;2023-01-15T06:36:16;13.07;;;4.53;;
58017;SDS011;43810;50.860;19.226;2023-01-15T06:38:45;12.23;;;4.50;;
58017;SDS011;43810;50.860;19.226;2023-01-15T06:41:13;6.30;;;2.53;;
58017;SDS011;43810;50.860;19.226;2023-01-15T06:43:59;7.78;;;3.10;;
58017;SDS011;43810;50.860;19.226;2023-01-15T06:46:44;7.93;;;2.83;;
58017;SDS011;43810;50.860;19.226;2023-01-15T06:49:30;3.65;;;2.45;;
58017;SDS011;43810;50.860;19.226;2023-01-15T06:51:57;4.78;;;2.40;;
58017;SDS011;43810;50.860;19.226;2023-01-15T06:54:24;4.45;;;2.10;;
58017;SDS011;43810;50.860;19.226;2023-01-15T06:56:50;4.90;;;2.38;;
58017;SDS011;43810;50.860;19.226;2023-01-15T06:59:16;5.43;;;2.13;;
58017;SDS011;43810;50.860;19.226;2023-01-15T07:01:43;4.68;;;2.42;;
58017;SDS011;43810;50.860;19.226;2023-01-15T07:04:09;4.97;;;2.00;;
58017;SDS011;43810;50.860;19.226;2023-01-15T07:06:34;2.85;;;2.17;;
58017;SDS011;43810;50.860;19.226;2023-01-15T07:09:00;4.97;;;2.30;;
58017;SDS011;43810;50.860;19.226;2023-01-15T07:11:26;6.85;;;2.72;;
58017;SDS011;43810;50.860;19.226;2023-01-15T07:13:52;2.53;;;2.03;;
58017;SDS011;43810;50.860;19.226;2023-01-15T07:16:33;5.35;;;2.50;;
58017;SDS011;43810;50.860;19.226;2023-01-15T07:19:00;6.93;;;2.92;;
58017;SDS011;43810;50.860;19.226;2023-01-15T07:21:27;3.58;;;2.03;;
58017;SDS011;43810;50.860;19.226;2023-01-15T07:23:53;5.97;;;2.45;;
58017;SDS011;43810;50.860;19.226;2023-01-15T07:26:23;4.65;;;2.83;;
58017;SDS011;43810;50.860;19.226;2023-01-15T07:28:48;6.05;;;2.97;;
58017;SDS011;43810;50.860;19.226;2023-01-15T07:31:15;4.00;;;2.60;;
58017;SDS011;43810;50.860;19.226;2023-01-15T07:33:41;3.00;;;2.15;;
58017;SDS011;43810;50.860;19.226;2023-01-15T07:36:07;4.95;;;2.83;;
58017;SDS011;43810;50.860;19.226;2023-01-15T07:38:33;5.10;;;2.67;;
58017;SDS011;43810;50.860;19.226;2023-01-15T07:40:59;7.13;;;2.55;;
58017;SDS011;43810;50.860;19.226;2023-01-15T07:43:43;6.07;;;2.50;;
58017;SDS011;43810;50.860;19.226;2023-01-15T07:46:28;5.38;;;2.42;;
58017;SDS011;43810;50.860;19.226;2023-01-15T07:49:13;5.82;;;2.97;;
58017;SDS011;43810;50.860;19.226;2023-01-15T07:51:58;9.15;;;2.97;;
58017;SDS011;43810;50.860;19.226;2023-01-15T07:54:24;7.70;;;3.45;;
58017;SDS011;43810;50.860;19.226;2023-01-15T07:56:50;5.93;;;3.20;;
58017;SDS011;43810;50.860;19.226;2023-01-15T07:59:17;7.05;;;3.00;;
58017;SDS011;43810;50.860;19.226;2023-01-15T08:01:44;6.35;;;3.75;;
58017;SDS011;43810;50.860;19.226;2023-01-15T08:04:10;6.97;;;3.33;;
58017;SDS011;43810;50.860;19.226;2023-01-15T08:06:36;5.55;;;2.97;;
58017;SDS011;43810;50.860;19.226;2023-01-15T08:09:02;8.00;;;3.70;;
58017;SDS011;43810;50.860;19.226;2023-01-15T08:11:28;5.43;;;3.17;;
58017;SDS011;43810;50.860;19.226;2023-01-15T08:14:13;7.35;;;3.72;;
58017;SDS011;43810;50.860;19.226;2023-01-15T08:16:58;10.07;;;4.32;;
58017;SDS011;43810;50.860;19.226;2023-01-15T08:19:23;13.55;;;4.43;;
58017;SDS011;43810;50.860;19.226;2023-01-15T08:21:50;11.90;;;4.32;;
58017;SDS011;43810;50.860;19.226;2023-01-15T08:24:16;11.43;;;5.57;;
58017;SDS011;43810;50.860;19.226;2023-01-15T08:26:42;9.95;;;3.72;;
58017;SDS011;43810;50.860;19.226;2023-01-15T08:29:08;7.10;;;3.85;;
58017;SDS011;43810;50.860;19.226;2023-01-15T08:31:34;9.18;;;4.30;;
58017;SDS011;43810;50.860;19.226;2023-01-15T08:34:01;9.13;;;4.63;;
58017;SDS011;43810;50.860;19.226;2023-01-15T08:36:27;11.32;;;4.15;;
58017;SDS011;43810;50.860;19.226;2023-01-15T08:38:53;8.73;;;4.82;;
58017;SDS011;43810;50.860;19.226;2023-01-15T08:41:19;10.95;;;5.43;;
58017;SDS011;43810;50.860;19.226;2023-01-15T08:43:45;11.63;;;4.65;;
58017;SDS011;43810;50.860;19.226;2023-01-15T08:46:11;13.60;;;4.38;;
58017;SDS011;43810;50.860;19.226;2023-01-15T08:48:36;7.75;;;3.75;;
58017;SDS011;43810;50.860;19.226;2023-01-15T08:51:03;6.75;;;3.42;;
58017;SDS011;43810;50.860;19.226;2023-01-15T08:53:33;14.30;;;4.78;;
58017;SDS011;43810;50.860;19.226;2023-01-15T08:56:00;12.27;;;4.97;;
58017;SDS011;43810;50.860;19.226;2023-01-15T08:58:26;12.80;;;4.80;;
58017;SDS011;43810;50.860;19.226;2023-01-15T09:00:54;13.90;;;5.40;;
58017;SDS011;43810;50.860;19.226;2023-01-15T09:03:20;10.85;;;5.35;;
58017;SDS011;43810;50.860;19.226;2023-01-15T09:05:46;13.88;;;5.97;;
58017;SDS011;43810;50.860;19.226;2023-01-15T09:08:12;17.88;;;7.10;;
58017;SDS011;43810;50.860;19.226;2023-01-15T09:10:38;18.73;;;7.10;;
58017;SDS011;43810;50.860;19.226;2023-01-15T09:13:04;12.80;;;5.68;;
58017;SDS011;43810;50.860;19.226;2023-01-15T09:15:31;16.00;;;6.20;;
58017;SDS011;43810;50.860;19.226;2023-01-15T09:17:57;10.07;;;5.65;;
58017;SDS011;43810;50.860;19.226;2023-01-15T09:20:23;12.15;;;4.75;;
58017;SDS011;43810;50.860;19.226;2023-01-15T09:22:50;13.75;;;5.38;;
58017;SDS011;43810;50.860;19.226;2023-01-15T09:25:16;9.98;;;4.60;;
58017;SDS011;43810;50.860;19.226;2023-01-15T09:27:44;8.07;;;4.32;;
58017;SDS011;43810;50.860;19.226;2023-01-15T09:30:15;9.10;;;4.20;;
58017;SDS011;43810;50.860;19.226;2023-01-15T09:32:43;6.43;;;3.78;;
58017;SDS011;43810;50.860;19.226;2023-01-15T09:35:09;8.77;;;3.90;;
58017;SDS011;43810;50.860;19.226;2023-01-15T09:37:35;5.65;;;3.88;;
58017;SDS011;43810;50.860;19.226;2023-01-15T09:40:01;6.25;;;3.47;;
58017;SDS011;43810;50.860;19.226;2023-01-15T09:45:30;8.50;;;3.80;;
58017;SDS011;43810;50.860;19.226;2023-01-15T09:48:12;10.43;;;4.90;;
58017;SDS011;43810;50.860;19.226;2023-01-15T09:53:39;10.43;;;4.38;;
58017;SDS011;43810;50.860;19.226;2023-01-15T09:56:19;8.70;;;3.83;;
58017;SDS011;43810;50.860;19.226;2023-01-15T09:58:47;6.13;;;3.65;;
58017;SDS011;43810;50.860;19.226;2023-01-15T10:01:15;7.93;;;3.13;;
58017;SDS011;43810;50.860;19.226;2023-01-15T10:03:45;10.40;;;4.03;;
58017;SDS011;43810;50.860;19.226;2023-01-15T10:06:26;8.18;;;4.03;;
58017;SDS011;43810;50.860;19.226;2023-01-15T10:08:58;6.70;;;3.55;;
58017;SDS011;43810;50.860;19.226;2023-01-15T10:11:43;8.02;;;3.88;;
58017;SDS011;43810;50.860;19.226;2023-01-15T10:14:34;6.75;;;3.65;;
58017;SDS011;43810;50.860;19.226;2023-01-15T10:17:21;7.57;;;4.25;;
58017;SDS011;43810;50.860;19.226;2023-01-15T10:19:51;7.43;;;3.80;;
58017;SDS011;43810;50.860;19.226;2023-01-15T10:22:25;11.35;;;4.93;;
58017;SDS011;43810;50.860;19.226;2023-01-15T10:24:55;15.20;;;5.90;;
58017;SDS011;43810;50.860;19.226;2023-01-15T10:27:27;16.65;;;6.82;;
58017;SDS011;43810;50.860;19.226;2023-01-15T10:32:50;16.83;;;5.32;;
58017;SDS011;43810;50.860;19.226;2023-01-15T10:35:40;13.50;;;5.20;;
58017;SDS011;43810;50.860;19.226;2023-01-15T10:43:56;14.00;;;5.10;;
58017;SDS011;43810;50.860;19.226;2023-01-15T10:46:30;14.75;;;6.47;;
58017;SDS011;43810;50.860;19.226;2023-01-15T10:49:03;16.50;;;6.15;;
58017;SDS011;43810;50.860;19.226;2023-01-15T10:51:43;13.65;;;6.22;;
58017;SDS011;43810;50.860;19.226;2023-01-15T10:56:56;11.05;;;4.93;;
58017;SDS011;43810;50.860;19.226;2023-01-15T11:02:23;11.82;;;5.60;;
58017;SDS011;43810;50.860;19.226;2023-01-15T11:04:50;15.20;;;6.00;;
58017;SDS011;43810;50.860;19.226;2023-01-15T11:07:17;20.83;;;8.80;;
58017;SDS011;43810;50.860;19.226;2023-01-15T11:09:49;15.10;;;5.88;;
58017;SDS011;43810;50.860;19.226;2023-01-15T11:12:26;12.63;;;5.75;;
58017;SDS011;43810;50.860;19.226;2023-01-15T11:15:13;14.98;;;6.00;;
58017;SDS011;43810;50.860;19.226;2023-01-15T11:17:59;17.13;;;7.15;;
58017;SDS011;43810;50.860;19.226;2023-01-15T11:20:46;10.48;;;4.75;;
58017;SDS011;43810;50.860;19.226;2023-01-15T11:23:17;13.85;;;5.53;;
58017;SDS011;43810;50.860;19.226;2023-01-15T11:25:49;12.17;;;5.80;;
58017;SDS011;43810;50.860;19.226;2023-01-15T11:31:08;11.88;;;5.50;;
58017;SDS011;43810;50.860;19.226;2023-01-15T11:33:36;6.40;;;3.85;;
58017;SDS011;43810;50.860;19.226;2023-01-15T11:36:03;8.60;;;4.28;;
58017;SDS011;43810;50.860;19.226;2023-01-15T11:38:41;7.13;;;3.85;;
58017;SDS011;43810;50.860;19.226;2023-01-15T11:44:13;16.13;;;4.13;;
58017;SDS011;43810;50.860;19.226;2023-01-15T11:46:58;7.40;;;3.60;;
58017;SDS011;43810;50.860;19.226;2023-01-15T11:49:49;10.15;;;4.72;;
58017;SDS011;43810;50.860;19.226;2023-01-15T11:52:36;9.82;;;4.47;;
58017;SDS011;43810;50.860;19.226;2023-01-15T11:55:09;17.27;;;5.25;;
58017;SDS011;43810;50.860;19.226;2023-01-15T11:57:38;17.23;;;5.13;;
58017;SDS011;43810;50.860;19.226;2023-01-15T12:00:06;18.30;;;7.25;;
58017;SDS011;43810;50.860;19.226;2023-01-15T12:02:39;9.40;;;4.13;;
58017;SDS011;43810;50.860;19.226;2023-01-15T12:05:14;9.52;;;4.03;;
58017;SDS011;43810;50.860;19.226;2023-01-15T12:07:43;11.93;;;5.20;;
58017;SDS011;43810;50.860;19.226;2023-01-15T12:13:17;11.10;;;3.95;;
58017;SDS011;43810;50.860;19.226;2023-01-15T12:21:56;10.55;;;4.13;;
58017;SDS011;43810;50.860;19.226;2023-01-15T12:27:18;7.82;;;3.08;;
58017;SDS011;43810;50.860;19.226;2023-01-15T12:30:05;14.30;;;4.93;;
58017;SDS011;43810;50.860;19.226;2023-01-15T12:32:43;14.98;;;5.05;;
58017;SDS011;43810;50.860;19.226;2023-01-15T12:37:57;8.93;;;3.78;;
58017;SDS011;43810;50.860;19.226;2023-01-15T12:40:41;14.20;;;5.32;;
58017;SDS011;43810;50.860;19.226;2023-01-15T12:43:12;10.18;;;4.40;;
58017;SDS011;43810;50.860;19.226;2023-01-15T12:46:02;11.60;;;5.20;;
58017;SDS011;43810;50.860;19.226;2023-01-15T12:51:13;11.55;;;4.90;;
58017;SDS011;43810;50.860;19.226;2023-01-15T12:53:55;12.70;;;5.60;;
58017;SDS011;43810;50.860;19.226;2023-01-15T13:00:23;11.95;;;5.13;;
58017;SDS011;43810;50.860;19.226;2023-01-15T13:05:46;8.90;;;3.97;;
58017;SDS011;43810;50.860;19.226;2023-01-15T13:08:39;15.10;;;4.43;;
58017;SDS011;43810;50.860;19.226;2023-01-15T13:11:10;7.63;;;4.40;;
58017;SDS011;43810;50.860;19.226;2023-01-15T13:13:39;10.68;;;4.38;;
58017;SDS011;43810;50.860;19.226;2023-01-15T13:16:17;11.60;;;4.22;;
58017;SDS011;43810;50.860;19.226;2023-01-15T13:21:40;10.65;;;4.43;;
58017;SDS011;43810;50.860;19.226;2023-01-15T13:27:23;12.45;;;4.65;;
58017;SDS011;43810;50.860;19.226;2023-01-15T13:33:13;9.45;;;4.38;;
58017;SDS011;43810;50.860;19.226;2023-01-15T13:35:46;10.60;;;4.53;;
58017;SDS011;43810;50.860;19.226;2023-01-15T13:38:17;7.60;;;3.88;;
58017;SDS011;43810;50.860;19.226;2023-01-15T13:40:47;9.93;;;4.43;;
58017;SDS011;43810;50.860;19.226;2023-01-15T13:46:11;11.77;;;5.18;;
58017;SDS011;43810;50.860;19.226;2023-01-15T13:48:49;12.55;;;5.22;;
58017;SDS011;43810;50.860;19.226;2023-01-15T13:53:51;8.73;;;5.22;;
58017;SDS011;43810;50.860;19.226;2023-01-15T13:56:29;11.75;;;5.25;;
58017;SDS011;43810;50.860;19.226;2023-01-15T13:59:03;11.02;;;5.50;;
58017;SDS011;43810;50.860;19.226;2023-01-15T14:01:35;13.02;;;5.22;;
58017;SDS011;43810;50.860;19.226;2023-01-15T14:26:14;30.42;;;10.88;;
58017;SDS011;43810;50.860;19.226;2023-01-15T14:34:24;18.48;;;8.80;;
58017;SDS011;43810;50.860;19.226;2023-01-15T14:36:55;24.65;;;9.18;;
58017;SDS011;43810;50.860;19.226;2023-01-15T14:42:06;35.20;;;14.15;;
58017;SDS011;43810;50.860;19.226;2023-01-15T14:44:58;28.23;;;11.23;;
58017;SDS011;43810;50.860;19.226;2023-01-15T14:55:29;20.73;;;8.65;;
58017;SDS011;43810;50.860;19.226;2023-01-15T14:58:03;21.05;;;8.13;;
58017;SDS011;43810;50.860;19.226;2023-01-15T15:00:38;17.20;;;7.35;;
58017;SDS011;43810;50.860;19.226;2023-01-15T15:03:16;17.60;;;8.00;;
58017;SDS011;43810;50.860;19.226;2023-01-15T15:05:47;13.77;;;7.43;;
58017;SDS011;43810;50.860;19.226;2023-01-15T15:08:13;18.08;;;8.48;;
58017;SDS011;43810;50.860;19.226;2023-01-15T15:10:43;24.17;;;9.82;;
58017;SDS011;43810;50.860;19.226;2023-01-15T15:13:21;13.73;;;8.25;;
58017;SDS011;43810;50.860;19.226;2023-01-15T15:16:03;14.93;;;7.43;;
58017;SDS011;43810;50.860;19.226;2023-01-15T15:18:40;15.73;;;6.90;;
58017;SDS011;43810;50.860;19.226;2023-01-15T15:23:50;16.20;;;8.18;;
58017;SDS011;43810;50.860;19.226;2023-01-15T15:28:55;16.45;;;7.95;;
58017;SDS011;43810;50.860;19.226;2023-01-15T15:31:23;16.92;;;7.63;;
58017;SDS011;43810;50.860;19.226;2023-01-15T15:33:52;44.33;;;15.45;;
58017;SDS011;43810;50.860;19.226;2023-01-15T15:36:20;16.30;;;8.23;;
58017;SDS011;43810;50.860;19.226;2023-01-15T15:38:55;21.95;;;9.68;;
58017;SDS011;43810;50.860;19.226;2023-01-15T15:41:25;18.10;;;8.35;;
58017;SDS011;43810;50.860;19.226;2023-01-15T15:44:27;18.48;;;7.72;;
58017;SDS011;43810;50.860;19.226;2023-01-15T15:47:20;17.13;;;8.80;;
58017;SDS011;43810;50.860;19.226;2023-01-15T15:50:05;11.43;;;6.88;;
58017;SDS011;43810;50.860;19.226;2023-01-15T15:52:43;14.52;;;7.82;;
58017;SDS011;43810;50.860;19.226;2023-01-15T15:55:13;16.63;;;7.68;;
58017;SDS011;43810;50.860;19.226;2023-01-15T15:57:40;17.83;;;9.20;;
58017;SDS011;43810;50.860;19.226;2023-01-15T16:00:14;17.33;;;8.85;;
58017;SDS011;43810;50.860;19.226;2023-01-15T16:02:44;17.27;;;8.50;;
58017;SDS011;43810;50.860;19.226;2023-01-15T16:05:24;15.48;;;9.60;;
58017;SDS011;43810;50.860;19.226;2023-01-15T16:07:53;15.82;;;9.18;;
58017;SDS011;43810;50.860;19.226;2023-01-15T16:10:29;16.00;;;9.60;;
58017;SDS011;43810;50.860;19.226;2023-01-15T16:12:58;17.75;;;9.48;;
58017;SDS011;43810;50.860;19.226;2023-01-15T16:15:27;15.35;;;9.23;;
58017;SDS011;43810;50.860;19.226;2023-01-15T16:17:56;20.48;;;10.77;;
58017;SDS011;43810;50.860;19.226;2023-01-15T16:20:29;27.55;;;12.38;;
58017;SDS011;43810;50.860;19.226;2023-01-15T16:23:01;25.13;;;11.85;;
58017;SDS011;43810;50.860;19.226;2023-01-15T16:25:39;21.05;;;11.48;;
58017;SDS011;43810;50.860;19.226;2023-01-15T16:28:17;24.85;;;12.07;;
58017;SDS011;43810;50.860;19.226;2023-01-15T16:30:57;27.50;;;14.68;;
58017;SDS011;43810;50.860;19.226;2023-01-15T16:33:25;29.00;;;15.00;;
58017;SDS011;43810;50.860;19.226;2023-01-15T16:35:55;31.73;;;16.58;;
58017;SDS011;43810;50.860;19.226;2023-01-15T16:38:23;31.08;;;14.45;;
58017;SDS011;43810;50.860;19.226;2023-01-15T16:40:49;22.48;;;11.23;;
58017;SDS011;43810;50.860;19.226;2023-01-15T16:43:19;23.80;;;12.18;;
58017;SDS011;43810;50.860;19.226;2023-01-15T16:50:55;18.95;;;10.95;;
58017;SDS011;43810;50.860;19.226;2023-01-15T16:56:02;14.57;;;8.65;;
58017;SDS011;43810;50.860;19.226;2023-01-15T16:58:31;18.63;;;10.35;;
58017;SDS011;43810;50.860;19.226;2023-01-15T17:04:17;15.00;;;7.88;;
58017;SDS011;43810;50.860;19.226;2023-01-15T17:06:59;17.45;;;9.07;;
58017;SDS011;43810;50.860;19.226;2023-01-15T17:09:29;18.55;;;10.07;;
58017;SDS011;43810;50.860;19.226;2023-01-15T17:11:59;20.27;;;10.32;;